Time;durP1;ratioP1;P1;durP2;ratioP2;P2;SDS_P1;SDS_P2;PMS_P1;PMS_P2;Temp;Humidity;BMP_temperature;BMP_pressure;BME280_temperature;BME280_humidity;BME280_pressure;Samples;Min_cycle;Max_cycle;Signal;HPM_P1;HPM_P2
2021/05/23 00:02:25;;;;;;;12.13;4.20;;;11.30;99.90;;;;;;5091543;28;20032;-74
2021/05/23 00:04:51;;;;;;;13.45;4.13;;;11.30;99.90;;;;;;5084425;28;20099;-73
2021/05/23 00:07:18;;;;;;;17.63;3.92;;;11.30;99.90;;;;;;5075729;28;20107;-73
2021/05/23 00:09:43;;;;;;;13.02;3.72;;;11.30;99.90;;;;;;5085435;28;20023;-74
2021/05/23 00:12:13;;;;;;;11.55;4.45;;;11.30;99.90;;;;;;5078687;28;20032;-74
2021/05/23 00:14:39;;;;;;;15.95;4.70;;;11.30;99.90;;;;;;5062172;28;20021;-73
2021/05/23 00:17:05;;;;;;;20.17;6.45;;;11.20;99.90;;;;;;5071994;28;20408;-74
2021/05/23 00:19:31;;;;;;;18.15;5.18;;;11.20;99.90;;;;;;5084776;28;20046;-74
2021/05/23 00:21:57;;;;;;;18.85;5.70;;;11.20;99.90;;;;;;5083068;28;20081;-73
2021/05/23 00:24:24;;;;;;;15.13;4.90;;;11.20;99.90;;;;;;5059618;28;20057;-73
2021/05/23 00:26:50;;;;;;;14.88;6.00;;;11.20;99.90;;;;;;5080537;28;20028;-73
2021/05/23 00:29:16;;;;;;;15.10;5.70;;;11.20;99.90;;;;;;5085467;28;20023;-74
2021/05/23 00:31:41;;;;;;;19.15;4.85;;;11.20;99.90;;;;;;5083425;28;20024;-73
2021/05/23 00:34:07;;;;;;;17.25;4.85;;;11.20;99.90;;;;;;5083845;28;20059;-73
2021/05/23 00:36:33;;;;;;;14.57;4.85;;;11.20;99.90;;;;;;5084983;28;20024;-74
2021/05/23 00:38:58;;;;;;;17.23;5.10;;;11.20;99.90;;;;;;5089834;28;20027;-73
2021/05/23 00:41:24;;;;;;;15.45;5.10;;;11.10;99.90;;;;;;5071443;28;20549;-74
2021/05/23 00:43:50;;;;;;;15.05;5.38;;;11.10;99.90;;;;;;5082536;28;20579;-74
2021/05/23 00:46:15;;;;;;;15.20;5.28;;;11.20;99.90;;;;;;5082404;28;20017;-74
2021/05/23 00:48:41;;;;;;;23.17;5.30;;;11.20;99.90;;;;;;5079215;28;20039;-74
2021/05/23 00:51:06;;;;;;;20.20;7.03;;;11.20;99.90;;;;;;5086108;28;20138;-74
2021/05/23 00:53:32;;;;;;;17.40;5.85;;;11.10;99.90;;;;;;5073485;28;20391;-74
2021/05/23 00:55:58;;;;;;;15.88;6.32;;;11.20;99.90;;;;;;5079863;28;20024;-74
2021/05/23 00:58:23;;;;;;;12.48;5.40;;;11.20;99.90;;;;;;5080669;28;20024;-73
2021/05/23 01:00:55;;;;;;;22.60;6.10;;;11.10;99.90;;;;;;5084466;28;20031;-74
2021/05/23 01:03:27;;;;;;;17.40;5.97;;;11.20;99.90;;;;;;5087967;28;20115;-72
2021/05/23 01:05:53;;;;;;;17.83;6.25;;;11.20;99.90;;;;;;5073982;28;20053;-72
2021/05/23 01:08:20;;;;;;;14.45;6.47;;;11.10;99.90;;;;;;5087175;28;20052;-72
2021/05/23 01:11:06;;;;;;;17.60;6.75;;;11.10;99.90;;;;;;5083950;28;20074;-72
2021/05/23 01:13:34;;;;;;;14.32;7.60;;;11.10;99.90;;;;;;5076997;28;20572;-72
2021/05/23 01:16:06;;;;;;;21.83;7.30;;;11.10;99.90;;;;;;5071174;28;20028;-72
2021/05/23 01:18:50;;;;;;;16.25;6.43;;;11.10;99.90;;;;;;5070192;28;20546;-72
2021/05/23 01:21:18;;;;;;;21.13;7.90;;;11.10;99.90;;;;;;5074683;28;20039;-72
2021/05/23 01:24:00;;;;;;;13.23;6.68;;;11.10;99.90;;;;;;5074960;28;20123;-72
2021/05/23 01:26:33;;;;;;;18.63;7.43;;;11.10;99.90;;;;;;5082558;28;20027;-72
2021/05/23 01:29:03;;;;;;;19.05;8.40;;;11.10;99.90;;;;;;5077685;28;20016;-72
2021/05/23 01:31:30;;;;;;;23.20;8.93;;;11.00;99.90;;;;;;5080324;28;20036;-72
2021/05/23 01:33:59;;;;;;;22.70;8.57;;;11.00;99.90;;;;;;5082494;28;20030;-72
2021/05/23 01:36:28;;;;;;;23.15;9.43;;;11.00;99.90;;;;;;5075104;28;20027;-72
2021/05/23 01:38:56;;;;;;;20.52;8.63;;;11.00;99.90;;;;;;5082786;28;20023;-73
2021/05/23 01:41:22;;;;;;;16.92;9.35;;;11.00;99.90;;;;;;5083485;28;20509;-72
2021/05/23 01:43:48;;;;;;;28.88;10.95;;;11.00;99.90;;;;;;5086054;28;20490;-72
2021/05/23 01:46:15;;;;;;;20.23;9.35;;;11.00;99.90;;;;;;5083560;28;20464;-72
2021/05/23 01:48:40;;;;;;;18.10;8.98;;;11.00;99.90;;;;;;5074969;28;20459;-72
2021/05/23 01:51:07;;;;;;;21.40;10.68;;;11.00;99.90;;;;;;5086901;28;20024;-72
2021/05/23 01:53:34;;;;;;;22.73;9.77;;;11.00;99.90;;;;;;5075755;28;20560;-72
2021/05/23 01:56:01;;;;;;;23.92;10.23;;;11.00;99.90;;;;;;5087328;28;20023;-72
2021/05/23 01:58:27;;;;;;;19.80;10.50;;;11.00;99.90;;;;;;5080099;28;20023;-72
2021/05/23 02:00:53;;;;;;;24.48;10.35;;;11.00;99.90;;;;;;5086038;28;20016;-73
2021/05/23 02:03:21;;;;;;;25.60;11.38;;;11.00;99.90;;;;;;5076703;28;20064;-74
2021/05/23 02:05:49;;;;;;;22.27;11.80;;;11.00;99.90;;;;;;5075158;28;20022;-73
2021/05/23 02:08:17;;;;;;;19.75;12.10;;;10.90;99.90;;;;;;5081486;28;20028;-72
2021/05/23 02:10:43;;;;;;;26.73;12.95;;;10.90;99.90;;;;;;5070702;28;20028;-72
2021/05/23 02:13:09;;;;;;;24.52;12.75;;;10.90;99.90;;;;;;5082643;28;20032;-73
2021/05/23 02:15:36;;;;;;;23.35;12.93;;;10.90;99.90;;;;;;5064448;28;20492;-72
2021/05/23 02:18:03;;;;;;;26.85;13.85;;;10.90;99.90;;;;;;5079374;28;20025;-72
2021/05/23 02:20:31;;;;;;;26.38;12.90;;;10.90;99.90;;;;;;5069800;28;20031;-72
2021/05/23 02:22:58;;;;;;;27.27;13.38;;;10.80;99.90;;;;;;5078208;28;20031;-72
2021/05/23 02:25:25;;;;;;;31.80;13.07;;;10.80;99.90;;;;;;5086294;28;20023;-72
2021/05/23 02:27:57;;;;;;;25.77;13.05;;;10.80;99.90;;;;;;5075890;28;20020;-72
2021/05/23 02:30:28;;;;;;;29.58;15.10;;;10.80;99.90;;;;;;5087981;28;20039;-72
2021/05/23 02:32:55;;;;;;;30.70;15.10;;;10.80;99.90;;;;;;5076328;28;20021;-73
2021/05/23 02:35:23;;;;;;;37.65;16.38;;;10.70;99.90;;;;;;5087347;28;20030;-71
2021/05/23 02:37:49;;;;;;;39.78;17.00;;;10.70;99.90;;;;;;5078089;28;20518;-72
2021/05/23 02:40:18;;;;;;;33.97;16.17;;;10.70;99.90;;;;;;5072286;28;20025;-72
2021/05/23 02:42:44;;;;;;;30.25;16.77;;;10.70;99.90;;;;;;5086442;28;20204;-72
2021/05/23 02:45:12;;;;;;;33.20;16.63;;;10.70;99.90;;;;;;5081151;28;20029;-72
2021/05/23 02:47:40;;;;;;;37.97;16.98;;;10.70;99.90;;;;;;5086104;28;20057;-72
2021/05/23 02:50:09;;;;;;;33.50;17.52;;;10.70;99.90;;;;;;5077369;28;20016;-72
2021/05/23 02:52:36;;;;;;;30.33;17.00;;;10.70;99.90;;;;;;5090220;28;20381;-72
2021/05/23 02:55:02;;;;;;;43.72;19.45;;;10.70;99.90;;;;;;5080019;28;20332;-73
2021/05/23 02:57:28;;;;;;;38.20;19.23;;;10.70;99.90;;;;;;5083067;28;20027;-72
2021/05/23 02:59:53;;;;;;;36.78;17.52;;;10.70;99.90;;;;;;5082215;28;20500;-72
2021/05/23 03:02:19;;;;;;;35.58;18.67;;;10.70;99.90;;;;;;5082724;28;20040;-73
2021/05/23 03:04:45;;;;;;;47.65;19.33;;;10.70;99.90;;;;;;5090043;28;20016;-73
2021/05/23 03:07:10;;;;;;;46.30;20.48;;;10.70;99.90;;;;;;5097083;28;20081;-72
2021/05/23 03:09:36;;;;;;;41.95;20.45;;;10.70;99.90;;;;;;5110586;28;20377;-74
2021/05/23 03:12:01;;;;;;;41.17;18.35;;;10.70;99.90;;;;;;5103986;28;20017;-74
2021/05/23 03:14:27;;;;;;;38.92;20.27;;;10.70;99.90;;;;;;5102374;28;20058;-74
2021/05/23 03:16:54;;;;;;;38.85;21.05;;;10.70;99.90;;;;;;5105844;28;20028;-74
2021/05/23 03:19:19;;;;;;;37.10;20.10;;;10.60;99.90;;;;;;5105733;28;20024;-74
2021/05/23 03:21:45;;;;;;;42.00;21.67;;;10.70;99.90;;;;;;5089719;28;20016;-74
2021/05/23 03:24:11;;;;;;;39.83;19.92;;;10.60;99.90;;;;;;5096335;28;20079;-73
2021/05/23 03:26:37;;;;;;;40.78;22.33;;;10.60;99.90;;;;;;5110591;28;20050;-73
2021/05/23 03:29:03;;;;;;;41.45;22.73;;;10.60;99.90;;;;;;5106167;28;20036;-74
2021/05/23 03:31:28;;;;;;;46.10;23.27;;;10.70;99.90;;;;;;5082468;28;20028;-72
2021/05/23 03:33:54;;;;;;;50.95;25.35;;;10.60;99.90;;;;;;5091085;28;20046;-72
2021/05/23 03:36:19;;;;;;;41.17;23.20;;;10.60;99.90;;;;;;5085201;28;20029;-72
2021/05/23 03:38:46;;;;;;;46.40;24.05;;;10.60;99.90;;;;;;5094006;28;20030;-72
2021/05/23 03:41:13;;;;;;;45.47;23.23;;;10.60;99.90;;;;;;5073261;28;20017;-72
2021/05/23 03:43:39;;;;;;;46.72;23.98;;;10.60;99.90;;;;;;5100652;28;20397;-73
2021/05/23 03:46:05;;;;;;;42.17;22.90;;;10.60;99.90;;;;;;5084985;28;20016;-72
2021/05/23 03:48:31;;;;;;;35.17;19.48;;;10.60;99.90;;;;;;5076855;28;20019;-72
2021/05/23 03:50:57;;;;;;;24.38;14.45;;;10.60;99.90;;;;;;5085657;28;20374;-71
2021/05/23 03:53:22;;;;;;;18.63;10.82;;;10.50;99.90;;;;;;5083285;28;20031;-72
2021/05/23 03:55:49;;;;;;;13.77;9.48;;;10.50;99.90;;;;;;5086576;28;20405;-72
2021/05/23 03:58:18;;;;;;;10.00;7.20;;;10.50;99.90;;;;;;5081101;28;20491;-71
2021/05/23 04:00:44;;;;;;;9.70;6.93;;;10.50;99.90;;;;;;5088561;28;20023;-71
2021/05/23 04:03:09;;;;;;;12.38;7.30;;;10.60;99.90;;;;;;5082076;28;20036;-71
2021/05/23 04:05:35;;;;;;;7.85;6.15;;;10.60;99.90;;;;;;5077692;28;20012;-73
2021/05/23 04:08:01;;;;;;;9.57;6.05;;;10.60;99.90;;;;;;5084720;28;20012;-72
2021/05/23 04:10:38;;;;;;;9.77;6.70;;;10.60;99.90;;;;;;5075047;28;20020;-73
2021/05/23 04:13:06;;;;;;;10.10;6.15;;;10.60;99.90;;;;;;5084641;28;20016;-72
2021/05/23 04:15:32;;;;;;;8.43;6.25;;;10.70;99.90;;;;;;5075408;28;20093;-72
2021/05/23 04:17:58;;;;;;;9.05;7.10;;;10.60;99.90;;;;;;5088324;28;20494;-72
2021/05/23 04:20:25;;;;;;;9.40;7.47;;;10.70;99.90;;;;;;5081097;28;20032;-73
2021/05/23 04:22:51;;;;;;;10.27;8.15;;;10.70;99.90;;;;;;5076929;28;20090;-72
2021/05/23 04:25:18;;;;;;;7.63;6.50;;;10.70;99.90;;;;;;5086409;28;20030;-72
2021/05/23 04:27:46;;;;;;;9.57;5.93;;;10.60;99.90;;;;;;5075160;28;20021;-72
2021/05/23 04:30:13;;;;;;;6.60;5.55;;;10.60;99.90;;;;;;5086616;28;20020;-72
2021/05/23 04:32:40;;;;;;;7.70;5.28;;;10.70;99.90;;;;;;5078270;28;20033;-72
2021/05/23 04:35:06;;;;;;;9.43;5.43;;;10.70;99.90;;;;;;5084413;28;20036;-73
2021/05/23 04:37:32;;;;;;;5.30;4.20;;;10.70;99.90;;;;;;5084476;28;20028;-72
2021/05/23 04:39:58;;;;;;;6.55;4.53;;;10.80;99.90;;;;;;5077322;28;20027;-72
2021/05/23 04:42:23;;;;;;;5.20;4.70;;;10.90;99.90;;;;;;5088198;28;20493;-72
2021/05/23 04:44:49;;;;;;;7.38;5.10;;;11.00;99.90;;;;;;5081251;28;20024;-72
2021/05/23 04:47:15;;;;;;;8.23;5.03;;;11.00;99.90;;;;;;5088834;28;20538;-72
2021/05/23 04:49:41;;;;;;;10.68;5.95;;;11.00;99.90;;;;;;5079246;28;20070;-72
2021/05/23 04:52:07;;;;;;;9.23;6.50;;;11.00;99.90;;;;;;5086599;28;20033;-72
2021/05/23 04:54:34;;;;;;;7.30;6.18;;;11.00;99.90;;;;;;5084564;28;20020;-72
2021/05/23 04:57:00;;;;;;;10.18;7.85;;;10.90;99.90;;;;;;5069971;28;20025;-72
2021/05/23 04:59:26;;;;;;;11.05;7.63;;;10.80;99.90;;;;;;5090103;28;20501;-72
2021/05/23 05:01:51;;;;;;;14.57;8.27;;;10.80;99.90;;;;;;5077871;28;20040;-72
2021/05/23 05:04:17;;;;;;;15.02;8.93;;;10.70;99.90;;;;;;5074768;28;20013;-72
2021/05/23 05:06:42;;;;;;;13.45;7.93;;;10.70;99.90;;;;;;5078924;28;20486;-72
2021/05/23 05:09:08;;;;;;;7.75;5.80;;;10.70;99.90;;;;;;5079914;28;20031;-72
2021/05/23 05:11:33;;;;;;;7.10;4.15;;;10.60;99.90;;;;;;5085224;28;20004;-72
2021/05/23 05:13:59;;;;;;;4.63;2.90;;;10.60;99.90;;;;;;5078639;28;20021;-72
2021/05/23 05:16:24;;;;;;;3.38;2.65;;;10.50;99.90;;;;;;5075404;28;20026;-73
2021/05/23 05:18:50;;;;;;;3.15;2.10;;;10.50;99.90;;;;;;5088732;28;20039;-72
2021/05/23 05:21:16;;;;;;;6.43;2.40;;;10.50;99.90;;;;;;5069938;28;20032;-72
2021/05/23 05:23:41;;;;;;;4.03;2.38;;;10.50;99.90;;;;;;5076052;28;20042;-73
2021/05/23 05:26:07;;;;;;;3.05;2.58;;;10.50;99.90;;;;;;5080468;28;20027;-73
2021/05/23 05:28:32;;;;;;;6.53;2.80;;;10.50;99.90;;;;;;5083726;28;20373;-72
2021/05/23 05:30:58;;;;;;;3.63;2.08;;;10.40;99.90;;;;;;5085691;28;20023;-72
2021/05/23 05:33:23;;;;;;;3.70;1.90;;;10.30;99.90;;;;;;5084708;28;20016;-73
2021/05/23 05:35:49;;;;;;;3.00;1.10;;;10.30;99.90;;;;;;5088763;28;20027;-72
2021/05/23 05:38:14;;;;;;;3.53;1.02;;;10.30;99.90;;;;;;5082504;28;20016;-72
2021/05/23 05:40:40;;;;;;;3.45;1.02;;;10.30;99.90;;;;;;5078031;28;20674;-72
2021/05/23 05:43:06;;;;;;;1.95;1.25;;;10.20;99.90;;;;;;5088282;28;20032;-72
2021/05/23 05:45:31;;;;;;;3.13;1.42;;;10.20;99.90;;;;;;5081125;28;20008;-73
2021/05/23 05:47:57;;;;;;;3.72;1.33;;;10.20;99.90;;;;;;5080356;28;20024;-72
2021/05/23 05:50:22;;;;;;;2.95;1.42;;;10.20;99.90;;;;;;5081917;28;20073;-72
2021/05/23 05:52:48;;;;;;;1.98;1.50;;;10.20;99.90;;;;;;5077889;28;20089;-73
2021/05/23 05:55:14;;;;;;;1.38;1.23;;;10.20;99.90;;;;;;5086272;28;20029;-72
2021/05/23 05:57:40;;;;;;;3.72;1.40;;;10.20;99.90;;;;;;5085272;28;20020;-72
2021/05/23 06:00:06;;;;;;;2.83;1.48;;;10.20;99.90;;;;;;5085710;28;20513;-73
2021/05/23 06:02:32;;;;;;;2.47;1.85;;;10.20;99.90;;;;;;5081132;28;20036;-73
2021/05/23 06:04:57;;;;;;;4.65;2.40;;;10.20;99.90;;;;;;5079144;28;20489;-72
2021/05/23 06:07:23;;;;;;;3.30;2.38;;;10.20;99.90;;;;;;5081979;28;20451;-72
2021/05/23 06:09:49;;;;;;;3.67;2.45;;;10.20;99.90;;;;;;5076107;28;20044;-73
2021/05/23 06:12:17;;;;;;;4.10;2.35;;;10.20;99.90;;;;;;5082822;28;20013;-72
2021/05/23 06:14:42;;;;;;;5.30;2.38;;;10.20;99.90;;;;;;5075058;28;20020;-73
2021/05/23 06:17:08;;;;;;;2.17;1.95;;;10.20;99.90;;;;;;5086347;28;20031;-72
2021/05/23 06:19:33;;;;;;;4.53;2.17;;;10.20;99.90;;;;;;5080061;28;20024;-73
2021/05/23 06:21:59;;;;;;;2.63;2.40;;;10.30;99.90;;;;;;5077967;28;20024;-73
2021/05/23 06:24:24;;;;;;;6.45;3.47;;;10.30;99.90;;;;;;5070892;28;20016;-72
2021/05/23 06:26:50;;;;;;;6.35;3.33;;;10.30;99.90;;;;;;5082219;28;20059;-72
2021/05/23 06:29:16;;;;;;;6.90;4.32;;;10.40;99.90;;;;;;5081832;28;20020;-73
2021/05/23 06:31:41;;;;;;;9.68;4.22;;;10.40;99.90;;;;;;5083515;28;20130;-73
2021/05/23 06:34:07;;;;;;;9.60;5.10;;;10.50;99.90;;;;;;5084226;28;20099;-72
2021/05/23 06:36:32;;;;;;;15.40;7.60;;;10.50;99.90;;;;;;5086777;28;20020;-72
2021/05/23 06:38:58;;;;;;;18.13;8.77;;;10.60;99.90;;;;;;5078992;28;20020;-72
2021/05/23 06:41:23;;;;;;;22.67;10.30;;;10.70;99.90;;;;;;5079052;28;20106;-74
2021/05/23 06:43:49;;;;;;;20.85;10.70;;;10.70;99.90;;;;;;5069124;28;20048;-72
2021/05/23 06:46:14;;;;;;;26.52;9.88;;;10.90;99.90;;;;;;5062363;28;20398;-73
2021/05/23 06:48:40;;;;;;;21.13;9.95;;;11.10;99.90;;;;;;5065777;28;20042;-73
2021/05/23 06:51:05;;;;;;;15.85;8.13;;;11.40;99.90;;;;;;5060225;28;20021;-72
2021/05/23 06:53:31;;;;;;;22.75;7.65;;;11.70;99.90;;;;;;5064361;28;20036;-74
2021/05/23 06:55:57;;;;;;;22.83;7.80;;;12.00;99.90;;;;;;5064979;28;20490;-73
2021/05/23 06:58:22;;;;;;;24.17;7.00;;;12.20;99.90;;;;;;5060804;28;20059;-73
2021/05/23 07:00:48;;;;;;;18.33;6.55;;;12.30;99.90;;;;;;5068450;28;20043;-74
2021/05/23 07:03:13;;;;;;;13.77;6.10;;;12.30;99.90;;;;;;5067719;28;20028;-73
2021/05/23 07:05:39;;;;;;;18.80;7.40;;;12.30;99.90;;;;;;5066518;28;20075;-73
2021/05/23 07:08:07;;;;;;;23.10;7.53;;;12.20;99.90;;;;;;5062286;28;20131;-73
2021/05/23 07:10:33;;;;;;;23.38;6.88;;;12.20;99.90;;;;;;5068117;28;20426;-73
2021/05/23 07:12:58;;;;;;;23.73;6.03;;;12.20;99.90;;;;;;5061169;28;20016;-73
2021/05/23 07:15:24;;;;;;;17.70;6.72;;;12.20;99.90;;;;;;5064420;28;20016;-72
2021/05/23 07:17:52;;;;;;;15.18;6.35;;;12.10;99.90;;;;;;5059493;28;20040;-72
2021/05/23 07:20:18;;;;;;;15.25;5.63;;;12.10;99.90;;;;;;5065480;28;20031;-73
2021/05/23 07:22:44;;;;;;;12.38;4.03;;;12.30;99.90;;;;;;5055972;28;20104;-73
2021/05/23 07:25:10;;;;;;;14.25;4.20;;;12.60;99.90;;;;;;5058626;28;20075;-73
2021/05/23 07:27:35;;;;;;;19.35;4.80;;;13.10;99.90;;;;;;5050662;28;20017;-73
2021/05/23 07:30:01;;;;;;;10.43;4.00;;;13.40;99.90;;;;;;5059423;28;20437;-73
2021/05/23 07:32:27;;;;;;;11.82;3.97;;;13.60;99.90;;;;;;5059065;28;20056;-73
2021/05/23 07:34:52;;;;;;;17.52;5.68;;;13.70;99.90;;;;;;5056542;28;20017;-73
2021/05/23 07:37:18;;;;;;;10.73;4.10;;;13.80;99.90;;;;;;5063956;28;20467;-73
2021/05/23 07:39:44;;;;;;;12.23;4.45;;;13.70;99.90;;;;;;5059832;28;20017;-73
2021/05/23 07:42:10;;;;;;;10.68;3.80;;;13.50;99.90;;;;;;5056386;28;20032;-73
2021/05/23 07:44:36;;;;;;;10.85;3.22;;;13.40;99.90;;;;;;5053430;28;20479;-73
2021/05/23 07:47:01;;;;;;;8.32;2.50;;;13.20;99.90;;;;;;5052650;28;20074;-73
2021/05/23 07:49:27;;;;;;;5.65;2.35;;;13.00;99.90;;;;;;5052936;28;20017;-73
2021/05/23 07:51:52;;;;;;;8.52;2.42;;;12.90;99.90;;;;;;5050284;28;20452;-73
2021/05/23 07:54:18;;;;;;;8.93;2.80;;;12.90;99.90;;;;;;5058161;28;20025;-73
2021/05/23 07:56:45;;;;;;;10.02;3.72;;;12.90;99.90;;;;;;5057727;28;20021;-73
2021/05/23 07:59:11;;;;;;;9.90;3.20;;;13.00;99.90;;;;;;5060830;28;20099;-73
2021/05/23 08:01:36;;;;;;;18.50;4.22;;;13.10;99.90;;;;;;5054533;28;20534;-73
2021/05/23 08:04:02;;;;;;;8.57;3.03;;;13.10;99.90;;;;;;5055389;28;20033;-73
2021/05/23 08:06:28;;;;;;;8.63;3.28;;;13.30;99.90;;;;;;5064726;28;20017;-73
2021/05/23 08:08:53;;;;;;;8.20;1.75;;;13.60;99.90;;;;;;5054955;28;20074;-73
2021/05/23 08:11:19;;;;;;;8.40;1.85;;;13.60;99.90;;;;;;5061225;28;20028;-73
2021/05/23 08:13:45;;;;;;;5.70;2.50;;;13.50;99.90;;;;;;5066198;28;20419;-73
2021/05/23 08:16:10;;;;;;;4.88;1.77;;;13.40;99.90;;;;;;5063791;28;20098;-73
2021/05/23 08:18:38;;;;;;;4.85;1.02;;;13.30;99.90;;;;;;5060764;28;20025;-73
2021/05/23 08:21:04;;;;;;;6.72;1.35;;;13.00;99.90;;;;;;5062370;28;20439;-73
2021/05/23 08:23:32;;;;;;;6.38;1.75;;;12.80;99.90;;;;;;5065999;28;20050;-73
2021/05/23 08:25:59;;;;;;;4.20;1.65;;;12.60;99.90;;;;;;5070115;28;20538;-73
2021/05/23 08:28:27;;;;;;;4.18;1.30;;;12.40;99.90;;;;;;5059044;28;20489;-73
2021/05/23 08:30:52;;;;;;;6.53;1.30;;;12.30;99.90;;;;;;5052544;28;20071;-73
2021/05/23 08:33:18;;;;;;;4.28;1.48;;;12.20;99.90;;;;;;5058772;28;20028;-73
2021/05/23 08:35:44;;;;;;;8.10;1.60;;;12.00;99.90;;;;;;5053182;28;20100;-73
2021/05/23 08:38:09;;;;;;;2.58;1.65;;;12.00;99.90;;;;;;5053343;28;20051;-73
2021/05/23 08:40:36;;;;;;;2.20;1.05;;;11.90;99.90;;;;;;5054349;28;20021;-73
2021/05/23 08:43:04;;;;;;;3.15;1.40;;;11.90;99.90;;;;;;5052998;28;20017;-73
2021/05/23 08:45:29;;;;;;;8.52;1.10;;;11.80;99.90;;;;;;5051447;28;20106;-73
2021/05/23 08:47:55;;;;;;;4.80;1.42;;;11.80;99.90;;;;;;5010847;28;20113;-73
2021/05/23 08:50:23;;;;;;;4.57;1.67;;;11.80;99.90;;;;;;5012826;28;20089;-73
2021/05/23 08:52:57;;;;;;;4.15;1.48;;;11.90;99.90;;;;;;5008067;28;20638;-73
2021/05/23 08:55:23;;;;;;;4.68;1.73;;;11.90;99.90;;;;;;5010947;28;20061;-73
2021/05/23 08:57:51;;;;;;;4.32;1.40;;;12.00;99.90;;;;;;5011241;28;20041;-73
2021/05/23 09:00:17;;;;;;;5.38;1.65;;;12.00;99.90;;;;;;5009927;28;20583;-73
2021/05/23 09:02:56;;;;;;;5.97;1.98;;;12.00;99.90;;;;;;5008197;28;20018;-73
2021/05/23 09:05:26;;;;;;;12.50;2.58;;;12.10;99.90;;;;;;5010565;28;20040;-73
2021/05/23 09:07:51;;;;;;;9.55;2.17;;;12.20;99.90;;;;;;5010493;28;20441;-73
2021/05/23 09:10:29;;;;;;;8.95;2.30;;;12.20;99.90;;;;;;5007888;28;20054;-73
2021/05/23 09:12:55;;;;;;;5.13;2.28;;;12.40;99.90;;;;;;5007728;28;20046;-73
2021/05/23 09:15:21;;;;;;;7.65;2.10;;;12.60;99.90;;;;;;5008474;28;20501;-73
2021/05/23 09:17:58;;;;;;;11.75;2.75;;;12.70;99.90;;;;;;5008831;28;20488;-73
2021/05/23 09:20:24;;;;;;;8.98;2.20;;;13.00;99.90;;;;;;5011148;28;20112;-73
2021/05/23 09:22:53;;;;;;;6.35;2.13;;;13.20;99.90;;;;;;5009388;28;20121;-73
2021/05/23 09:25:30;;;;;;;6.80;1.30;;;13.30;99.90;;;;;;5008886;28;20018;-73
2021/05/23 09:27:56;;;;;;;8.10;1.90;;;13.40;99.90;;;;;;5006477;28;20511;-73
2021/05/23 09:30:25;;;;;;;11.40;3.05;;;13.40;99.90;;;;;;5010654;28;20057;-73
2021/05/23 09:32:52;;;;;;;13.13;1.55;;;13.50;99.90;;;;;;5009223;28;20101;-73
2021/05/23 09:35:17;;;;;;;9.55;1.65;;;13.40;99.90;;;;;;5010693;28;20411;-73
2021/05/23 09:37:44;;;;;;;10.55;2.10;;;13.40;99.70;;;;;;5009760;28;20032;-73
2021/05/23 09:40:23;;;;;;;6.10;1.90;;;13.50;99.50;;;;;;5009176;28;20506;-73
2021/05/23 09:42:51;;;;;;;6.00;1.33;;;13.60;99.00;;;;;;5008394;28;20034;-72
2021/05/23 09:45:17;;;;;;;5.28;1.13;;;13.70;98.40;;;;;;5008180;28;20563;-71
2021/05/23 09:47:50;;;;;;;6.15;1.48;;;13.90;97.80;;;;;;5011317;28;20017;-73
2021/05/23 09:50:16;;;;;;;8.68;1.63;;;14.40;97.20;;;;;;5014496;28;20431;-72
2021/05/23 09:52:41;;;;;;;4.82;0.98;;;14.60;96.30;;;;;;5012713;28;20022;-72
2021/05/23 09:55:07;;;;;;;9.35;1.60;;;14.80;95.80;;;;;;5013739;28;20061;-72
2021/05/23 09:57:33;;;;;;;9.13;1.75;;;15.10;95.90;;;;;;5008872;28;20022;-71
2021/05/23 10:00:10;;;;;;;11.15;1.75;;;15.40;96.30;;;;;;5019382;28;20029;-71
2021/05/23 10:02:53;;;;;;;8.75;2.35;;;15.60;96.30;;;;;;5016259;28;20029;-72
2021/05/23 10:05:20;;;;;;;8.80;1.55;;;15.80;96.00;;;;;;5012333;28;20053;-72
2021/05/23 10:07:45;;;;;;;6.45;1.45;;;15.90;95.50;;;;;;5012303;28;20014;-72
2021/05/23 10:10:12;;;;;;;6.45;1.83;;;15.90;95.00;;;;;;5012292;28;20435;-71
2021/05/23 10:12:38;;;;;;;15.30;2.22;;;15.90;95.10;;;;;;5009899;28;20057;-72
2021/05/23 10:15:05;;;;;;;5.03;1.30;;;15.70;94.10;;;;;;5011660;28;20076;-72
2021/05/23 10:17:33;;;;;;;8.85;1.58;;;15.60;93.50;;;;;;5015867;28;20095;-72
2021/05/23 10:20:01;;;;;;;9.55;1.77;;;15.40;93.10;;;;;;5009816;28;20511;-71
2021/05/23 10:22:28;;;;;;;6.32;2.05;;;15.20;93.20;;;;;;5003155;28;20346;-74
2021/05/23 10:24:57;;;;;;;6.63;1.58;;;15.20;93.80;;;;;;5010928;28;20488;-71
2021/05/23 10:27:25;;;;;;;5.97;1.65;;;15.20;94.00;;;;;;5005427;28;20121;-72
2021/05/23 10:29:53;;;;;;;8.30;1.73;;;15.10;94.10;;;;;;5009943;28;20161;-72
2021/05/23 10:32:29;;;;;;;4.70;1.52;;;15.20;94.40;;;;;;5008677;28;20013;-72
2021/05/23 10:34:55;;;;;;;6.43;1.85;;;15.30;94.00;;;;;;5011476;28;20454;-72
2021/05/23 10:37:29;;;;;;;5.78;1.27;;;15.30;93.90;;;;;;5010083;28;20424;-71
2021/05/23 10:39:56;;;;;;;6.68;0.95;;;15.50;93.60;;;;;;5011102;28;20030;-71
2021/05/23 10:42:24;;;;;;;5.60;1.13;;;15.60;92.80;;;;;;5013823;28;20029;-72
2021/05/23 10:44:51;;;;;;;7.03;1.20;;;15.60;91.80;;;;;;5003922;28;20048;-72
2021/05/23 10:47:22;;;;;;;6.18;1.63;;;15.60;90.30;;;;;;5010243;28;20041;-71
2021/05/23 10:50:05;;;;;;;4.07;1.00;;;15.50;88.40;;;;;;5010782;28;20030;-71
2021/05/23 10:52:33;;;;;;;4.63;0.82;;;15.60;87.10;;;;;;5007375;28;20081;-72
2021/05/23 10:55:12;;;;;;;2.80;0.70;;;15.70;87.20;;;;;;5006574;28;20031;-72
2021/05/23 10:57:52;;;;;;;6.37;0.90;;;15.80;82.00;;;;;;5009234;28;20029;-71
2021/05/23 11:00:24;;;;;;;3.08;0.50;;;15.90;84.20;;;;;;5009468;28;20265;-72
2021/05/23 11:02:56;;;;;;;5.10;0.50;;;15.90;81.60;;;;;;5010303;28;20091;-72
2021/05/23 11:05:30;;;;;;;2.13;0.55;;;15.90;79.10;;;;;;5008477;28;20018;-72
2021/05/23 11:08:01;;;;;;;4.78;0.68;;;15.80;78.40;;;;;;5006748;28;20014;-72
2021/05/23 11:10:30;;;;;;;4.07;0.40;;;15.70;79.00;;;;;;5007955;28;20030;-72
2021/05/23 11:13:00;;;;;;;6.72;0.38;;;15.70;78.90;;;;;;5007108;28;20029;-71
2021/05/23 11:15:38;;;;;;;5.47;0.95;;;15.80;78.40;;;;;;5009907;28;21109;-72
2021/05/23 11:18:04;;;;;;;3.45;0.50;;;15.70;77.60;;;;;;4991254;28;20045;-71
2021/05/23 11:20:29;;;;;;;4.60;0.90;;;15.70;77.00;;;;;;5011367;28;20025;-71
2021/05/23 11:22:57;;;;;;;2.58;0.70;;;15.80;77.80;;;;;;5017113;28;20042;-71
2021/05/23 11:25:23;;;;;;;5.60;0.90;;;15.80;76.50;;;;;;5024467;28;20808;-71
2021/05/23 11:27:59;;;;;;;4.30;1.00;;;15.80;76.30;;;;;;5014815;28;20014;-71
2021/05/23 11:30:27;;;;;;;5.60;0.70;;;15.80;76.40;;;;;;5026667;28;20022;-71
2021/05/23 11:33:16;;;;;;;4.07;0.80;;;15.90;77.50;;;;;;5016960;28;20433;-71
2021/05/23 11:35:42;;;;;;;3.53;0.90;;;16.00;76.70;;;;;;5012434;28;20049;-71
2021/05/23 11:38:09;;;;;;;3.08;0.60;;;16.10;76.40;;;;;;5011459;28;20399;-71
2021/05/23 11:40:43;;;;;;;4.63;0.93;;;16.30;77.10;;;;;;5002295;28;20030;-72
2021/05/23 11:43:10;;;;;;;7.05;1.15;;;16.60;75.10;;;;;;5018744;28;20033;-71
2021/05/23 11:45:36;;;;;;;4.90;0.82;;;16.60;73.30;;;;;;5022565;28;20043;-71
2021/05/23 11:48:07;;;;;;;3.17;1.63;;;16.70;74.20;;;;;;5018545;28;20021;-72
2021/05/23 11:50:33;;;;;;;2.38;0.90;;;16.80;74.30;;;;;;5027673;28;20041;-72
2021/05/23 11:52:59;;;;;;;3.72;1.00;;;16.90;73.30;;;;;;5015855;28;20491;-72
2021/05/23 11:55:28;;;;;;;2.13;0.73;;;16.90;72.50;;;;;;5012259;28;20375;-72
2021/05/23 11:58:07;;;;;;;3.47;1.05;;;16.90;72.90;;;;;;5012356;28;20472;-72
2021/05/23 12:00:33;;;;;;;3.97;0.90;;;16.90;72.90;;;;;;5015301;28;20470;-72
2021/05/23 12:02:59;;;;;;;5.10;0.55;;;17.00;73.00;;;;;;5007694;28;20033;-72
2021/05/23 12:05:45;;;;;;;4.28;0.82;;;17.00;73.10;;;;;;5023939;28;20405;-72
2021/05/23 12:08:19;;;;;;;3.28;0.68;;;17.10;72.60;;;;;;5006327;28;20450;-72
2021/05/23 12:11:05;;;;;;;1.85;0.55;;;17.10;72.10;;;;;;5020035;28;20021;-72
2021/05/23 12:13:40;;;;;;;2.42;0.40;;;17.10;70.70;;;;;;5015835;28;20036;-72
2021/05/23 12:16:08;;;;;;;4.03;0.80;;;17.20;70.40;;;;;;5003460;28;20169;-72
2021/05/23 12:18:36;;;;;;;5.20;0.68;;;17.20;71.40;;;;;;5012762;28;20022;-71
2021/05/23 12:21:01;;;;;;;5.05;0.45;;;17.30;69.80;;;;;;5009538;28;20032;-72
2021/05/23 12:23:27;;;;;;;4.10;0.45;;;17.40;69.50;;;;;;5026951;28;20021;-71
2021/05/23 12:25:52;;;;;;;2.35;0.32;;;17.50;69.80;;;;;;5022257;28;20022;-72
2021/05/23 12:28:18;;;;;;;2.50;0.40;;;17.60;69.00;;;;;;5011448;28;20044;-72
2021/05/23 12:30:44;;;;;;;2.13;0.75;;;17.60;68.40;;;;;;5025073;28;20033;-72
2021/05/23 12:33:09;;;;;;;4.03;0.45;;;17.60;67.80;;;;;;5006104;28;20495;-71
2021/05/23 12:35:37;;;;;;;2.15;0.68;;;17.60;67.80;;;;;;5011602;28;20064;-72
2021/05/23 12:38:05;;;;;;;4.18;0.43;;;17.70;68.60;;;;;;5011782;28;20057;-71
2021/05/23 12:40:53;;;;;;;7.07;1.02;;;17.70;67.90;;;;;;5004998;28;20025;-71
2021/05/23 12:43:22;;;;;;;3.95;0.68;;;17.70;68.20;;;;;;5017686;28;20050;-72